createdAt,value
2018-12-16T00:01:35.937Z,102025.73
2018-12-16T00:04:04.870Z,102021.36
2018-12-16T00:06:33.736Z,102013.92
2018-12-16T00:09:03.112Z,102015.27
2018-12-16T00:11:31.893Z,102009.54
2018-12-16T00:14:00.679Z,102005.17
2018-12-16T00:16:30.083Z,102006.03
2018-12-16T00:23:58.820Z,101991.20
2018-12-16T00:27:35.130Z,101992.95
2018-12-16T00:30:04.556Z,101992.98
2018-12-16T00:32:33.330Z,101991.20
2018-12-16T00:35:02.088Z,101992.95
2018-12-16T00:37:31.055Z,101984.21
2018-12-16T00:40:01.147Z,101979.39
2018-12-16T00:42:30.232Z,101983.78
2018-12-16T00:45:01.240Z,101973.30
2018-12-16T00:47:30.717Z,101978.95
2018-12-16T00:49:59.925Z,101979.86
2018-12-16T00:52:28.760Z,101977.67
2018-12-16T00:54:57.711Z,101976.77
2018-12-16T00:57:26.439Z,101975.47
2018-12-16T00:59:55.304Z,101973.72
2018-12-16T01:02:29.291Z,101975.89
2018-12-16T01:04:58.207Z,101971.12
2018-12-16T01:07:27.205Z,101975.91
2018-12-16T01:09:55.965Z,101972.41
2018-12-16T01:12:25.011Z,101972.41
2018-12-16T01:14:53.821Z,101974.58
2018-12-16T01:17:22.650Z,101969.80
2018-12-16T01:19:51.531Z,101976.34
2018-12-16T01:22:20.279Z,101964.55
2018-12-16T01:24:49.096Z,101971.98
2018-12-16T01:27:18.055Z,101950.98
2018-12-16T01:29:46.755Z,101962.37
2018-12-16T01:32:15.516Z,101958.42
2018-12-16T01:34:44.341Z,101954.93
2018-12-16T01:37:13.076Z,101964.54
2018-12-16T01:39:41.791Z,101961.03
2018-12-16T01:42:10.760Z,101944.83
2018-12-16T01:44:39.597Z,101950.56
2018-12-16T01:47:08.396Z,101943.55
2018-12-16T01:49:37.347Z,101942.67
2018-12-16T01:52:06.258Z,101928.69
2018-12-16T01:54:35.133Z,101934.36
2018-12-16T01:57:04.078Z,101925.19
2018-12-16T01:59:33.495Z,101918.65
2018-12-16T02:02:02.192Z,101912.54
2018-12-16T02:04:31.126Z,101900.72
2018-12-16T02:07:00.242Z,101896.37
2018-12-16T02:09:28.986Z,101895.89
2018-12-16T02:11:57.799Z,101875.77
2018-12-16T02:14:26.585Z,101866.59
2018-12-16T02:16:55.628Z,101859.16
2018-12-16T02:19:24.524Z,101872.75
2018-12-16T02:21:53.272Z,101860.53
2018-12-16T02:24:22.537Z,101847.86
2018-12-16T02:26:51.380Z,101836.90
2018-12-16T02:29:20.237Z,101833.36
2018-12-16T02:31:49.108Z,101829.84
2018-12-16T02:34:17.968Z,101831.62
2018-12-16T02:36:46.715Z,101827.23
2018-12-16T02:39:15.394Z,101831.17
2018-12-16T02:41:44.281Z,101818.91
2018-12-16T02:44:13.079Z,101819.36
2018-12-16T02:46:41.848Z,101830.73
2018-12-16T02:49:11.009Z,101819.80
2018-12-16T02:51:39.701Z,101827.27
2018-12-16T02:54:10.095Z,101810.64
2018-12-16T02:56:38.952Z,101818.09
2018-12-16T02:59:07.707Z,101812.87
2018-12-16T03:01:36.464Z,101808.03
2018-12-16T03:04:05.365Z,101803.22
2018-12-16T03:06:34.209Z,101797.53
2018-12-16T03:09:02.944Z,101794.47
2018-12-16T03:11:31.782Z,101794.47
2018-12-16T03:14:00.433Z,101796.66
2018-12-16T03:16:29.088Z,101785.77
2018-12-16T03:18:57.976Z,101775.70
2018-12-16T03:21:26.764Z,101773.00
2018-12-16T03:23:55.520Z,101762.56
2018-12-16T03:26:26.071Z,101774.80
2018-12-16T03:28:54.957Z,101768.65
2018-12-16T03:31:23.730Z,101764.66
2018-12-16T03:33:52.655Z,101751.98
2018-12-16T03:36:21.480Z,101753.64
2018-12-16T03:38:50.207Z,101754.05
2018-12-16T03:41:19.168Z,101744.00
2018-12-16T03:43:47.885Z,101744.80
2018-12-16T03:46:16.638Z,101739.94
2018-12-16T03:48:45.803Z,101734.63
2018-12-16T03:51:14.457Z,101717.63
2018-12-16T03:53:43.271Z,101710.14
2018-12-16T03:56:12.139Z,101707.96
2018-12-16T03:58:50.777Z,101708.43
2018-12-16T04:01:19.612Z,101695.32
2018-12-16T04:03:48.342Z,101692.19
2018-12-16T04:06:17.152Z,101688.29
2018-12-16T04:08:46.077Z,101683.88
2018-12-16T04:11:14.837Z,101679.02
2018-12-16T04:13:43.728Z,101679.00
2018-12-16T04:16:12.470Z,101678.13
2018-12-16T04:18:41.149Z,101658.89
2018-12-16T04:21:09.809Z,101652.84
2018-12-16T04:23:38.692Z,101646.63
2018-12-16T04:26:07.492Z,101628.63
2018-12-16T04:28:36.309Z,101628.22
2018-12-16T04:31:05.280Z,101625.27
2018-12-16T04:33:34.087Z,101627.52
2018-12-16T04:36:02.723Z,101627.49
2018-12-16T04:38:31.489Z,101612.64
2018-12-16T04:41:00.300Z,101619.24
2018-12-16T04:43:28.987Z,101614.92
2018-12-16T04:45:58.079Z,101623.13
2018-12-16T04:48:26.816Z,101620.42
2018-12-16T04:50:56.324Z,101622.59
2018-12-16T04:53:25.184Z,101625.21
2018-12-16T04:55:55.470Z,101626.13
2018-12-16T04:58:25.406Z,101621.73
2018-12-16T05:00:54.316Z,101604.72
2018-12-16T05:03:23.071Z,101607.71
2018-12-16T05:05:51.891Z,101613.89
2018-12-16T05:08:20.674Z,101612.58
2018-12-16T05:10:49.433Z,101608.98
2018-12-16T05:13:18.141Z,101596.69
2018-12-16T05:15:47.000Z,101602.33
2018-12-16T05:18:15.742Z,101603.66
2018-12-16T05:20:44.448Z,101603.66
2018-12-16T05:23:13.198Z,101599.72
2018-12-16T05:25:41.905Z,101590.50
2018-12-16T05:28:10.681Z,101590.88
2018-12-16T05:30:39.602Z,101591.30
2018-12-16T05:33:08.352Z,101584.26
2018-12-16T05:35:37.051Z,101570.62
2018-12-16T05:38:05.749Z,101581.55
2018-12-16T05:40:34.465Z,101571.50
2018-12-16T05:43:03.210Z,101563.22
2018-12-16T05:45:32.064Z,101565.28
2018-12-16T05:48:00.789Z,101556.86
2018-12-16T05:50:30.565Z,101562.45
2018-12-16T05:52:59.455Z,101558.89
2018-12-16T05:55:28.116Z,101552.86
2018-12-16T05:57:56.831Z,101551.02
2018-12-16T06:00:25.789Z,101546.71
2018-12-16T06:02:54.495Z,101540.98
2018-12-16T06:05:23.365Z,101541.77
2018-12-16T06:07:52.261Z,101520.47
2018-12-16T06:10:21.055Z,101516.25
2018-12-16T06:12:49.807Z,101504.09
2018-12-16T06:15:20.188Z,101493.55
2018-12-16T06:17:48.957Z,101498.44
2018-12-16T06:20:17.810Z,101498.92
2018-12-16T06:22:46.599Z,101509.84
2018-12-16T06:25:15.285Z,101504.15
2018-12-16T06:27:43.927Z,101512.12
2018-12-16T06:30:13.375Z,101512.11
2018-12-16T06:32:42.165Z,101509.00
2018-12-16T06:35:10.955Z,101511.51
2018-12-16T06:37:39.844Z,101515.05
2018-12-16T06:40:08.786Z,101505.88
2018-12-16T06:42:37.524Z,101513.77
2018-12-16T06:45:07.056Z,101508.17
2018-12-16T06:47:35.837Z,101498.97
2018-12-16T06:50:05.219Z,101496.45
2018-12-16T06:52:34.448Z,101508.63
2018-12-16T06:55:03.316Z,101515.56
2018-12-16T06:57:32.098Z,101510.22
2018-12-16T07:00:00.812Z,101503.20
2018-12-16T07:02:29.593Z,101502.34
2018-12-16T07:04:58.391Z,101502.25
2018-12-16T07:07:27.316Z,101502.73
2018-12-16T07:09:56.161Z,101495.72
2018-12-16T07:12:24.957Z,101496.62
2018-12-16T07:14:53.971Z,101487.42
2018-12-16T07:17:22.866Z,101496.16
2018-12-16T07:19:51.629Z,101499.52
2018-12-16T07:22:20.501Z,101495.66
2018-12-16T07:24:49.180Z,101496.69
2018-12-16T07:27:17.976Z,101500.21
2018-12-16T07:29:47.306Z,101500.26
2018-12-16T07:32:16.084Z,101504.13
2018-12-16T07:34:44.815Z,101501.89
2018-12-16T07:37:19.014Z,101504.13
2018-12-16T07:39:44.487Z,101506.28
2018-12-16T07:42:13.221Z,101507.66
2018-12-16T07:44:42.175Z,101505.48
2018-12-16T07:47:10.943Z,101497.94
2018-12-16T07:49:39.718Z,101506.28
2018-12-16T07:52:08.447Z,101501.39
2018-12-16T07:54:37.222Z,101501.03
2018-12-16T07:57:06.132Z,101500.52
2018-12-16T07:59:35.107Z,101501.46
2018-12-16T08:02:03.822Z,101492.17
2018-12-16T08:04:32.612Z,101487.77
2018-12-16T08:07:01.449Z,101489.27
2018-12-16T08:09:30.629Z,101484.08
2018-12-16T08:11:59.513Z,101480.95
2018-12-16T08:14:28.252Z,101471.69
2018-12-16T08:16:57.057Z,101473.08
2018-12-16T08:19:25.699Z,101474.19
2018-12-16T08:21:54.554Z,101464.84
2018-12-16T08:24:23.551Z,101467.52
2018-12-16T08:26:52.357Z,101465.00
2018-12-16T08:29:21.248Z,101471.45
2018-12-16T08:31:50.036Z,101467.94
2018-12-16T08:34:18.867Z,101460.83
2018-12-16T08:36:47.763Z,101451.25
2018-12-16T08:39:16.479Z,101463.12
2018-12-16T08:41:45.173Z,101453.77
2018-12-16T08:44:13.987Z,101444.94
2018-12-16T08:46:42.708Z,101455.31
2018-12-16T08:49:11.376Z,101441.99
2018-12-16T08:51:40.496Z,101454.28
2018-12-16T08:54:09.260Z,101452.66
2018-12-16T08:56:37.980Z,101457.50
2018-12-16T08:59:07.280Z,101454.63
2018-12-16T09:01:36.100Z,101446.81
2018-12-16T09:04:04.802Z,101451.14
2018-12-16T09:06:33.602Z,101448.10
2018-12-16T09:09:02.452Z,101442.08
2018-12-16T09:11:31.166Z,101440.55
2018-12-16T09:14:00.867Z,101437.78
2018-12-16T09:16:29.538Z,101440.38
2018-12-16T09:18:58.306Z,101440.87
2018-12-16T09:21:27.228Z,101440.50
2018-12-16T09:23:55.997Z,101440.37
2018-12-16T09:26:24.716Z,101438.08
2018-12-16T09:28:53.564Z,101438.70
2018-12-16T09:31:22.295Z,101443.14
2018-12-16T09:33:51.038Z,101439.29
2018-12-16T09:36:19.712Z,101435.38
2018-12-16T09:38:48.530Z,101440.84
2018-12-16T09:41:17.288Z,101431.18
2018-12-16T09:43:46.175Z,101425.81
2018-12-16T09:46:14.915Z,101426.59
2018-12-16T09:48:43.753Z,101424.84
2018-12-16T09:51:12.854Z,101417.55
2018-12-16T09:53:41.678Z,101412.30
2018-12-16T09:56:10.405Z,101409.29
2018-12-16T09:58:39.347Z,101400.23
2018-12-16T10:01:08.342Z,101391.88
2018-12-16T10:03:37.242Z,101388.70
2018-12-16T10:06:06.098Z,101388.73
2018-12-16T10:08:34.882Z,101381.70
2018-12-16T10:11:03.675Z,101386.74
2018-12-16T10:13:34.846Z,101385.40
2018-12-16T10:16:03.609Z,101382.77
2018-12-16T10:18:32.343Z,101386.12
2018-12-16T10:21:01.215Z,101391.82
2018-12-16T10:23:30.789Z,101386.71
2018-12-16T10:25:59.528Z,101383.36
2018-12-16T10:28:28.677Z,101373.75
2018-12-16T10:30:57.337Z,101368.27
2018-12-16T10:33:26.090Z,101374.37
2018-12-16T10:35:55.159Z,101364.73
2018-12-16T10:38:23.969Z,101357.66
2018-12-16T10:40:52.715Z,101346.27
2018-12-16T10:43:21.721Z,101351.18
2018-12-16T10:45:50.519Z,101343.73
2018-12-16T10:48:19.184Z,101343.45
2018-12-16T10:50:48.117Z,101350.00
2018-12-16T10:53:16.835Z,101341.95
2018-12-16T10:55:45.523Z,101345.20
2018-12-16T10:58:14.404Z,101346.48
2018-12-16T11:00:48.260Z,101329.20
2018-12-16T11:03:17.452Z,101327.59
2018-12-16T11:05:46.103Z,101330.56
2018-12-16T11:08:14.819Z,101326.00
2018-12-16T11:10:43.749Z,101323.33
2018-12-16T11:13:12.543Z,101319.78
2018-12-16T11:15:41.434Z,101323.59
2018-12-16T11:18:10.421Z,101318.88
2018-12-16T11:20:39.228Z,101320.96
2018-12-16T11:23:08.000Z,101324.65
2018-12-16T11:25:40.135Z,101319.13
2018-12-16T11:28:08.917Z,101314.13
2018-12-16T11:30:37.610Z,101307.94
2018-12-16T11:33:06.335Z,101304.51
2018-12-16T11:35:35.109Z,101297.45
2018-12-16T11:38:03.841Z,101306.56
2018-12-16T11:40:33.019Z,101305.09
2018-12-16T11:43:01.710Z,101303.19
2018-12-16T11:45:31.879Z,101293.43
2018-12-16T11:48:01.279Z,101294.82
2018-12-16T11:50:30.958Z,101292.47
2018-12-16T11:52:59.708Z,101290.80
2018-12-16T11:55:28.713Z,101275.77
2018-12-16T11:58:00.505Z,101285.61
2018-12-16T12:00:29.271Z,101278.95
2018-12-16T12:02:58.001Z,101275.28
2018-12-16T12:05:26.948Z,101275.60
2018-12-16T12:07:55.882Z,101270.30
2018-12-16T12:10:24.598Z,101271.49
2018-12-16T12:12:53.393Z,101272.69
2018-12-16T12:15:22.267Z,101270.37
2018-12-16T12:17:50.940Z,101272.41
2018-12-16T12:20:19.745Z,101259.49
2018-12-16T12:22:49.231Z,101257.61
2018-12-16T12:25:20.056Z,101254.42
2018-12-16T12:27:48.826Z,101252.86
2018-12-16T12:30:17.884Z,101251.49
2018-12-16T12:32:49.156Z,101252.77
2018-12-16T12:35:17.494Z,101260.20
2018-12-16T12:37:46.493Z,101255.02
2018-12-16T12:40:15.525Z,101253.55
2018-12-16T12:42:44.273Z,101257.45
2018-12-16T12:45:13.008Z,101254.98
2018-12-16T12:47:41.724Z,101247.48
2018-12-16T12:50:10.683Z,101252.79
2018-12-16T12:52:39.583Z,101251.59
2018-12-16T12:55:08.641Z,101255.94
2018-12-16T12:57:37.417Z,101253.75
2018-12-16T13:00:10.173Z,101256.49
2018-12-16T13:02:39.001Z,101256.17
2018-12-16T13:05:07.875Z,101254.17
2018-12-16T13:07:36.864Z,101253.66
2018-12-16T13:10:07.297Z,101252.45
2018-12-16T13:12:36.036Z,101245.20
2018-12-16T13:15:05.232Z,101248.95
2018-12-16T13:17:34.063Z,101246.08
2018-12-16T13:20:04.102Z,101244.85
2018-12-16T13:22:32.970Z,101242.80
2018-12-16T13:25:12.687Z,101240.92
2018-12-16T13:27:42.031Z,101245.96
2018-12-16T13:30:11.413Z,101243.33
2018-12-16T13:32:40.180Z,101237.97
2018-12-16T13:35:09.070Z,101240.53
2018-12-16T13:37:37.848Z,101233.11
2018-12-16T13:40:07.909Z,101233.73
2018-12-16T13:42:36.840Z,101234.03
2018-12-16T13:45:06.611Z,101237.14
2018-12-16T13:47:35.590Z,101225.03
2018-12-16T13:50:05.505Z,101225.34
2018-12-16T13:52:34.287Z,101217.26
2018-12-16T13:55:03.165Z,101220.64
2018-12-16T13:57:33.138Z,101224.07
2018-12-16T14:00:01.925Z,101226.48
2018-12-16T14:02:31.085Z,101228.16
2018-12-16T14:04:59.904Z,101231.22
2018-12-16T14:07:28.680Z,101235.00
2018-12-16T14:09:57.700Z,101232.84
2018-12-16T14:12:26.549Z,101227.19
2018-12-16T14:14:55.317Z,101237.02
2018-12-16T14:17:24.126Z,101234.86
2018-12-16T14:19:53.011Z,101229.25
2018-12-16T14:22:21.807Z,101229.20
2018-12-16T14:24:50.579Z,101228.46
2018-12-16T14:27:19.398Z,101231.93
2018-12-16T14:29:48.169Z,101235.75
2018-12-16T14:32:16.823Z,101239.48
2018-12-16T14:34:45.806Z,101238.25
2018-12-16T14:37:14.561Z,101235.48
2018-12-16T14:39:43.396Z,101236.98
2018-12-16T14:42:12.211Z,101240.58
2018-12-16T14:44:40.918Z,101243.52
2018-12-16T14:47:09.708Z,101240.49
2018-12-16T14:49:38.553Z,101243.52
2018-12-16T14:52:07.270Z,101244.85
2018-12-16T14:54:38.105Z,101246.56
2018-12-16T14:57:07.665Z,101244.73
2018-12-16T14:59:36.513Z,101255.30
2018-12-16T15:02:05.291Z,101254.94
2018-12-16T15:04:34.520Z,101256.53
2018-12-16T15:07:03.314Z,101256.90
2018-12-16T15:09:32.062Z,101257.77
2018-12-16T15:12:01.403Z,101255.62
2018-12-16T15:14:30.271Z,101259.00
2018-12-16T15:16:58.969Z,101264.27
2018-12-16T15:19:27.765Z,101259.95
2018-12-16T15:21:56.647Z,101252.66
2018-12-16T15:24:25.426Z,101252.11
2018-12-16T15:26:54.460Z,101248.82
2018-12-16T15:29:23.498Z,101253.61
2018-12-16T15:31:52.234Z,101257.36
2018-12-16T15:34:20.971Z,101256.56
2018-12-16T15:36:49.644Z,101259.75
2018-12-16T15:39:18.635Z,101268.00
2018-12-16T15:41:47.489Z,101267.28
2018-12-16T15:44:16.232Z,101268.12
2018-12-16T15:46:45.022Z,101261.98
2018-12-16T15:49:14.059Z,101254.48
2018-12-16T15:51:42.978Z,101258.28
2018-12-16T15:54:11.802Z,101259.33
2018-12-16T15:56:40.684Z,101256.66
2018-12-16T15:59:09.381Z,101262.61
2018-12-16T16:01:38.164Z,101265.95
2018-12-16T16:04:07.160Z,101263.28
2018-12-16T16:06:38.004Z,101253.97
2018-12-16T16:09:08.670Z,101256.12
2018-12-16T16:11:37.419Z,101254.73
2018-12-16T16:14:06.591Z,101260.24
2018-12-16T16:16:35.515Z,101266.11
2018-12-16T16:19:04.476Z,101270.09
2018-12-16T16:21:33.297Z,101270.90
2018-12-16T16:24:03.130Z,101272.65
2018-12-16T16:26:31.891Z,101276.16
2018-12-16T16:29:01.367Z,101272.38
2018-12-16T16:31:30.564Z,101280.59
2018-12-16T16:33:59.349Z,101282.98
2018-12-16T16:36:28.122Z,101286.81
2018-12-16T16:38:56.894Z,101284.73
2018-12-16T16:41:25.639Z,101283.98
2018-12-16T16:43:54.361Z,101289.84
2018-12-16T16:46:23.613Z,101285.62
2018-12-16T16:48:52.408Z,101290.00
2018-12-16T16:51:21.172Z,101282.34
2018-12-16T16:53:50.233Z,101284.50
2018-12-16T16:56:23.024Z,101283.17
2018-12-16T16:58:49.696Z,101285.45
2018-12-16T17:01:18.571Z,101294.59
2018-12-16T17:03:47.284Z,101296.27
2018-12-16T17:06:16.140Z,101297.94
2018-12-16T17:08:44.872Z,101298.42
2018-12-16T17:11:13.642Z,101305.41
2018-12-16T17:13:42.406Z,101305.36
2018-12-16T17:16:11.959Z,101306.40
2018-12-16T17:18:41.187Z,101291.08
2018-12-16T17:21:09.872Z,101292.72
2018-12-16T17:23:38.657Z,101295.78
2018-12-16T17:26:07.466Z,101282.34
2018-12-16T17:28:36.205Z,101285.81
2018-12-16T17:31:05.888Z,101286.29
2018-12-16T17:33:35.018Z,101288.97
2018-12-16T17:36:03.800Z,101288.84
2018-12-16T17:38:33.008Z,101288.48
2018-12-16T17:41:01.737Z,101283.70
2018-12-16T17:43:31.632Z,101294.09
2018-12-16T17:46:00.768Z,101291.69
2018-12-16T17:48:29.431Z,101296.69
2018-12-16T17:50:58.158Z,101302.28
2018-12-16T17:53:26.921Z,101301.03
2018-12-16T17:55:55.721Z,101299.24
2018-12-16T17:58:25.172Z,101294.05
2018-12-16T18:00:54.247Z,101299.98
2018-12-16T18:03:23.079Z,101299.47
2018-12-16T18:05:51.850Z,101312.55
2018-12-16T18:08:20.760Z,101313.47
2018-12-16T18:10:49.795Z,101315.70
2018-12-16T18:13:18.544Z,101309.95
2018-12-16T18:15:47.360Z,101315.00
2018-12-16T18:18:16.500Z,101314.38
2018-12-16T18:20:45.357Z,101307.77
2018-12-16T18:23:14.369Z,101311.63
2018-12-16T18:25:43.120Z,101313.45
2018-12-16T18:28:12.046Z,101317.66
2018-12-16T18:30:41.146Z,101310.66
2018-12-16T18:33:10.615Z,101319.73
2018-12-16T18:35:39.475Z,101316.45
2018-12-16T18:38:08.404Z,101312.95
2018-12-16T18:40:37.360Z,101314.70
2018-12-16T18:43:06.276Z,101316.38
2018-12-16T18:45:35.553Z,101310.61
2018-12-16T18:48:05.120Z,101309.23
2018-12-16T18:50:34.215Z,101311.16
2018-12-16T18:53:03.150Z,101314.30
2018-12-16T18:55:32.060Z,101326.51
2018-12-16T18:58:01.821Z,101326.77
2018-12-16T19:00:30.715Z,101330.31
2018-12-16T19:02:59.556Z,101328.85
2018-12-16T19:05:28.433Z,101324.92
2018-12-16T19:07:57.440Z,101323.41
2018-12-16T19:10:26.187Z,101325.16
2018-12-16T19:12:54.983Z,101329.03
2018-12-16T19:15:24.134Z,101323.80
2018-12-16T19:17:53.041Z,101325.45
2018-12-16T19:20:22.147Z,101320.63
2018-12-16T19:22:51.078Z,101318.07
2018-12-16T19:25:19.823Z,101331.40
2018-12-16T19:27:49.095Z,101343.20
2018-12-16T19:30:18.373Z,101339.59
2018-12-16T19:32:47.226Z,101335.91
2018-12-16T19:35:18.098Z,101338.61
2018-12-16T19:37:47.006Z,101341.92
2018-12-16T19:40:16.197Z,101339.12
2018-12-16T19:42:45.497Z,101339.55
2018-12-16T19:45:14.615Z,101346.77
2018-12-16T19:47:49.408Z,101343.29
2018-12-16T19:50:14.433Z,101345.92
2018-12-16T19:52:43.426Z,101350.45
2018-12-16T19:55:12.287Z,101357.43
2018-12-16T19:57:41.466Z,101358.41
2018-12-16T20:00:10.903Z,101361.28
2018-12-16T20:02:40.416Z,101361.66
2018-12-16T20:05:13.747Z,101347.28
2018-12-16T20:07:42.757Z,101366.30
2018-12-16T20:10:11.733Z,101366.44
2018-12-16T20:12:40.644Z,101362.36
2018-12-16T20:15:09.661Z,101360.43
2018-12-16T20:17:38.582Z,101361.58
2018-12-16T20:20:08.906Z,101354.47
2018-12-16T20:22:37.894Z,101364.38
2018-12-16T20:25:08.126Z,101364.89
2018-12-16T20:27:37.313Z,101367.08
2018-12-16T20:30:07.864Z,101367.11
2018-12-16T20:32:36.877Z,101370.83
2018-12-16T20:35:06.204Z,101371.53
2018-12-16T20:37:35.799Z,101369.84
2018-12-16T20:40:05.091Z,101368.06
2018-12-16T20:42:35.109Z,101374.53
2018-12-16T20:45:04.348Z,101369.81
2018-12-16T20:47:33.542Z,101374.64
2018-12-16T20:50:02.917Z,101375.61
2018-12-16T20:52:32.177Z,101381.72
2018-12-16T20:55:02.129Z,101383.84
2018-12-16T20:57:33.476Z,101384.59
2018-12-16T21:00:02.786Z,101389.48
2018-12-16T21:02:32.923Z,101379.39
2018-12-16T21:05:02.267Z,101383.75
2018-12-16T21:07:33.313Z,101383.67
2018-12-16T21:10:02.430Z,101387.69
2018-12-16T21:12:37.393Z,101383.70
2018-12-16T21:15:11.717Z,101384.22
2018-12-16T21:17:46.254Z,101386.51
2018-12-16T21:20:15.213Z,101387.02
2018-12-16T21:22:44.289Z,101391.80
2018-12-16T21:25:13.361Z,101390.52
2018-12-16T21:27:43.206Z,101393.46
2018-12-16T21:30:12.233Z,101387.02
2018-12-16T21:32:41.406Z,101397.47
2018-12-16T21:35:10.315Z,101404.32
2018-12-16T21:37:41.284Z,101406.48
2018-12-16T21:40:10.455Z,101402.60
2018-12-16T21:42:40.000Z,101410.53
2018-12-16T21:45:09.073Z,101407.86
2018-12-16T21:47:38.011Z,101411.27
2018-12-16T21:50:07.757Z,101415.25
2018-12-16T21:52:36.932Z,101422.00
2018-12-16T21:55:07.394Z,101419.61
2018-12-16T21:57:36.359Z,101419.70
2018-12-16T22:00:07.685Z,101427.20
2018-12-16T22:02:37.356Z,101429.76
2018-12-16T22:05:08.130Z,101434.65
2018-12-16T22:07:36.980Z,101432.52
2018-12-16T22:10:06.597Z,101425.27
2018-12-16T22:12:35.424Z,101426.99
2018-12-16T22:15:05.124Z,101445.55
2018-12-16T22:17:34.019Z,101442.01
2018-12-16T22:20:02.904Z,101442.75
2018-12-16T22:22:32.032Z,101442.25
2018-12-16T22:25:01.105Z,101445.42
2018-12-16T22:27:29.912Z,101446.26
2018-12-16T22:29:58.682Z,101454.59
2018-12-16T22:32:27.658Z,101443.53
2018-12-16T22:34:56.416Z,101450.37
2018-12-16T22:37:25.347Z,101448.83
2018-12-16T22:39:54.879Z,101441.88
2018-12-16T22:42:23.878Z,101440.13
2018-12-16T22:44:52.715Z,101434.02
2018-12-16T22:47:21.653Z,101429.19
2018-12-16T22:49:50.472Z,101438.50
2018-12-16T22:52:19.939Z,101442.81
2018-12-16T22:54:48.935Z,101441.47
2018-12-16T22:57:17.897Z,101451.97
2018-12-16T22:59:46.764Z,101446.33
2018-12-16T23:02:15.696Z,101460.77
2018-12-16T23:04:44.459Z,101450.55
2018-12-16T23:07:13.188Z,101443.91
2018-12-16T23:09:42.147Z,101438.30
2018-12-16T23:12:11.173Z,101442.69
2018-12-16T23:14:40.124Z,101451.09
2018-12-16T23:17:09.055Z,101452.38
2018-12-16T23:19:37.984Z,101449.33
2018-12-16T23:22:06.835Z,101443.73
2018-12-16T23:24:38.297Z,101443.22
2018-12-16T23:27:07.590Z,101444.61
2018-12-16T23:29:36.680Z,101444.41
2018-12-16T23:32:05.692Z,101445.89
2018-12-16T23:34:35.112Z,101441.81
2018-12-16T23:37:04.230Z,101449.80
2018-12-16T23:39:33.080Z,101451.59
2018-12-16T23:42:02.164Z,101453.41
2018-12-16T23:44:31.106Z,101456.04
2018-12-16T23:47:00.001Z,101469.16
2018-12-16T23:49:28.756Z,101468.79
2018-12-16T23:51:57.650Z,101465.28
2018-12-16T23:54:26.729Z,101468.73
2018-12-16T23:56:55.814Z,101457.89
2018-12-16T23:59:24.672Z,101471.67
